Terminal Aerodrome Forecast
Issued by NWS Northern Indiana

Home | Current Version | Previous Version | Text Only | Print | Product List | Glossary On
Versions: 1 2 3 4 5 6 7 8 9 10 11 12 13 14 15
000
FTUS43 KIWX 300100 AAA
TAFFWA
TAF AMD
KFWA 300100Z 3001/3024 21004KT P6SM FEW080
     FM300200 26004KT P6SM SCT070
     FM301600 29010KT P6SM SCT040 BKN250=

USA.gov is the U.S. government's official web portal to all federal, state and local government web resources and services.